createdAt,value
2018-07-07T00:02:59.938Z,4.70
2018-07-07T00:08:03.794Z,5.10
2018-07-07T00:12:59.729Z,4.70
2018-07-07T00:17:55.639Z,4.50
2018-07-07T00:22:50.258Z,4.67
2018-07-07T00:27:45.872Z,4.50
2018-07-07T00:32:40.868Z,4.57
2018-07-07T00:37:35.190Z,4.83
2018-07-07T00:42:30.170Z,4.47
2018-07-07T00:47:25.549Z,4.30
2018-07-07T00:52:20.159Z,4.47
2018-07-07T00:57:15.112Z,5.10
2018-07-07T01:02:16.764Z,5.27
2018-07-07T01:07:11.357Z,4.47
2018-07-07T01:12:05.983Z,4.50
2018-07-07T01:17:00.800Z,4.80
2018-07-07T01:21:57.003Z,5.50
2018-07-07T01:26:51.554Z,5.70
2018-07-07T01:31:46.241Z,5.23
2018-07-07T01:36:41.502Z,5.50
2018-07-07T01:41:35.975Z,5.60
2018-07-07T01:46:30.529Z,5.37
2018-07-07T01:51:26.340Z,6.00
2018-07-07T01:56:20.936Z,7.37
2018-07-07T02:01:16.399Z,5.77
2018-07-07T02:06:11.112Z,5.37
2018-07-07T02:11:05.674Z,5.07
2018-07-07T02:16:00.132Z,5.43
2018-07-07T02:20:54.720Z,5.87
2018-07-07T02:25:49.312Z,5.53
2018-07-07T02:30:43.799Z,4.50
2018-07-07T02:35:38.544Z,4.63
2018-07-07T02:40:33.464Z,4.63
2018-07-07T02:45:28.174Z,4.73
2018-07-07T02:50:22.643Z,4.90
2018-07-07T02:55:23.081Z,4.30
2018-07-07T03:00:17.668Z,5.00
2018-07-07T03:05:12.213Z,4.33
2018-07-07T03:10:20.655Z,4.60
2018-07-07T03:15:22.103Z,4.30
2018-07-07T03:20:19.882Z,4.23
2018-07-07T03:25:14.999Z,4.40
2018-07-07T03:30:11.039Z,4.30
2018-07-07T03:35:05.766Z,4.00
2018-07-07T03:40:00.541Z,4.10
2018-07-07T03:44:55.586Z,4.47
2018-07-07T03:49:49.850Z,4.07
2018-07-07T03:54:45.378Z,3.83
2018-07-07T03:59:40.399Z,3.87
2018-07-07T04:04:35.428Z,4.00
2018-07-07T04:09:30.046Z,4.20
2018-07-07T04:14:24.703Z,3.87
2018-07-07T04:19:18.980Z,4.17
2018-07-07T04:24:13.658Z,4.97
2018-07-07T04:29:08.099Z,5.70
2018-07-07T04:34:02.571Z,5.27
2018-07-07T04:38:57.343Z,5.47
2018-07-07T04:43:51.826Z,6.10
2018-07-07T04:48:46.341Z,5.57
2018-07-07T04:53:41.392Z,5.60
2018-07-07T04:58:36.063Z,5.23
2018-07-07T05:03:30.753Z,5.00
2018-07-07T05:08:25.328Z,5.07
2018-07-07T05:13:19.926Z,5.50
2018-07-07T05:18:15.241Z,5.20
2018-07-07T05:23:09.720Z,5.10
2018-07-07T05:28:04.200Z,4.97
2018-07-07T05:32:58.801Z,5.13
2018-07-07T05:37:53.366Z,4.43
2018-07-07T05:42:47.625Z,5.30
2018-07-07T05:47:42.226Z,5.03
2018-07-07T05:52:36.992Z,4.80
2018-07-07T05:57:31.377Z,4.70
2018-07-07T06:02:26.278Z,4.70
2018-07-07T06:07:21.505Z,4.90
2018-07-07T06:12:16.079Z,4.47
2018-07-07T06:17:10.847Z,4.30
2018-07-07T06:22:05.661Z,4.23
2018-07-07T06:27:00.728Z,3.97
2018-07-07T06:31:55.468Z,4.10
2018-07-07T06:36:52.232Z,4.00
2018-07-07T06:41:47.157Z,3.97
2018-07-07T06:46:42.473Z,3.83
2018-07-07T06:51:37.461Z,3.87
2018-07-07T06:56:32.718Z,3.47
2018-07-07T07:01:27.525Z,4.00
2018-07-07T07:06:23.220Z,3.40
2018-07-07T07:11:18.541Z,3.13
2018-07-07T07:16:13.120Z,3.47
2018-07-07T07:21:08.026Z,2.93
2018-07-07T07:26:02.836Z,3.40
2018-07-07T07:30:57.999Z,2.83
2018-07-07T07:35:52.491Z,2.93
2018-07-07T07:40:47.483Z,3.20
2018-07-07T07:45:42.259Z,3.00
2018-07-07T07:50:37.878Z,2.03
2018-07-07T07:55:32.616Z,2.20
2018-07-07T08:00:27.366Z,2.47
2018-07-07T08:05:22.141Z,2.60
2018-07-07T08:10:17.115Z,2.17
2018-07-07T08:15:11.886Z,2.30
2018-07-07T08:20:06.684Z,2.27
2018-07-07T08:25:01.471Z,1.80
2018-07-07T08:29:56.390Z,2.00
2018-07-07T08:34:51.581Z,2.10
2018-07-07T08:39:46.476Z,1.90
2018-07-07T08:44:41.574Z,2.33
2018-07-07T08:49:36.653Z,2.53
2018-07-07T08:54:31.202Z,2.40
2018-07-07T08:59:25.985Z,2.10
2018-07-07T09:04:20.809Z,2.13
2018-07-07T09:09:15.786Z,2.20
2018-07-07T09:14:10.530Z,2.33
2018-07-07T09:19:05.004Z,2.20
2018-07-07T09:24:00.042Z,2.17
2018-07-07T09:28:55.246Z,2.00
2018-07-07T09:33:50.074Z,2.00
2018-07-07T09:38:52.382Z,2.20
2018-07-07T09:43:47.408Z,1.97
2018-07-07T09:48:53.771Z,2.10
2018-07-07T09:53:48.286Z,2.00
2018-07-07T09:58:43.587Z,2.33
2018-07-07T10:03:39.053Z,2.50
2018-07-07T10:08:34.108Z,2.10
2018-07-07T10:13:29.068Z,2.67
2018-07-07T10:18:24.905Z,2.03
2018-07-07T10:23:19.686Z,2.13
2018-07-07T10:28:15.294Z,2.17
2018-07-07T10:33:10.078Z,3.30
2018-07-07T10:38:05.028Z,3.10
2018-07-07T10:43:00.519Z,3.27
2018-07-07T10:47:55.486Z,2.27
2018-07-07T10:52:50.061Z,2.10
2018-07-07T10:57:45.059Z,2.20
2018-07-07T11:02:39.709Z,1.70
2018-07-07T11:07:34.374Z,2.00
2018-07-07T11:12:29.019Z,2.17
2018-07-07T11:17:24.092Z,1.80
2018-07-07T11:22:18.603Z,1.90
2018-07-07T11:27:13.685Z,1.80
2018-07-07T11:32:08.213Z,1.90
2018-07-07T11:37:02.803Z,2.07
2018-07-07T11:41:57.495Z,2.20
2018-07-07T11:46:51.986Z,2.17
2018-07-07T11:51:46.755Z,2.20
2018-07-07T11:56:41.272Z,2.10
2018-07-07T12:01:35.772Z,2.60
2018-07-07T12:06:30.298Z,2.50
2018-07-07T12:11:24.809Z,2.10
2018-07-07T12:16:19.781Z,2.07
2018-07-07T12:21:14.457Z,2.03
2018-07-07T12:26:08.709Z,2.23
2018-07-07T12:31:03.540Z,2.20
2018-07-07T12:35:58.182Z,1.70
2018-07-07T12:40:53.164Z,2.30
2018-07-07T12:45:48.332Z,2.33
2018-07-07T12:50:43.629Z,2.07
2018-07-07T12:55:38.400Z,1.67
2018-07-07T13:00:33.116Z,1.93
2018-07-07T13:05:27.900Z,1.77
2018-07-07T13:10:22.712Z,1.77
2018-07-07T13:15:17.459Z,2.00
2018-07-07T13:20:11.956Z,2.13
2018-07-07T13:25:06.519Z,1.90
2018-07-07T13:30:01.073Z,2.07
2018-07-07T13:34:55.604Z,1.90
2018-07-07T13:39:50.441Z,2.30
2018-07-07T13:44:45.108Z,1.97
2018-07-07T13:49:40.133Z,1.80
2018-07-07T13:54:34.696Z,1.90
2018-07-07T13:59:29.225Z,2.00
2018-07-07T14:04:25.791Z,1.50
2018-07-07T14:09:20.655Z,1.90
2018-07-07T14:14:15.383Z,1.70
2018-07-07T14:19:10.031Z,1.90
2018-07-07T14:24:04.836Z,1.70
2018-07-07T14:28:59.475Z,2.03
2018-07-07T14:33:53.965Z,1.97
2018-07-07T14:38:48.584Z,2.10
2018-07-07T14:44:03.467Z,2.13
2018-07-07T14:48:59.727Z,1.90
2018-07-07T14:53:54.761Z,1.80
2018-07-07T14:58:49.447Z,1.70
2018-07-07T15:03:44.457Z,1.93
2018-07-07T15:08:38.971Z,2.27
2018-07-07T15:13:35.943Z,2.23
2018-07-07T15:18:31.005Z,2.00
2018-07-07T15:23:26.390Z,1.90
2018-07-07T15:28:21.063Z,1.77
2018-07-07T15:33:15.656Z,1.80
2018-07-07T15:38:10.496Z,2.20
2018-07-07T15:43:04.967Z,1.83
2018-07-07T15:47:59.605Z,1.67
2018-07-07T15:52:54.683Z,1.60
2018-07-07T15:57:49.276Z,1.67
2018-07-07T16:02:43.880Z,1.80
2018-07-07T16:07:38.666Z,1.77
2018-07-07T16:12:33.735Z,2.20
2018-07-07T16:17:28.557Z,1.90
2018-07-07T16:22:23.081Z,1.80
2018-07-07T16:27:17.659Z,1.90
2018-07-07T16:32:12.276Z,2.23
2018-07-07T16:37:06.995Z,1.77
2018-07-07T16:42:01.905Z,1.77
2018-07-07T16:46:57.100Z,2.13
2018-07-07T16:51:51.874Z,1.80
2018-07-07T16:56:46.522Z,1.80
2018-07-07T17:01:41.227Z,2.10
2018-07-07T17:06:36.620Z,2.20
2018-07-07T17:11:31.476Z,2.00
2018-07-07T17:16:26.027Z,2.67
2018-07-07T17:21:21.983Z,2.00
2018-07-07T17:26:22.662Z,2.10
2018-07-07T17:31:18.084Z,2.10
2018-07-07T17:36:13.235Z,1.90
2018-07-07T17:41:08.498Z,1.80
2018-07-07T17:46:03.392Z,2.37
2018-07-07T17:50:58.362Z,2.23
2018-07-07T17:55:53.373Z,2.23
2018-07-07T18:00:48.250Z,2.37
2018-07-07T18:05:42.955Z,2.00
2018-07-07T18:10:37.476Z,2.20
2018-07-07T18:15:32.204Z,1.83
2018-07-07T18:20:26.820Z,1.57
2018-07-07T18:25:21.340Z,1.70
2018-07-07T18:30:15.836Z,2.00
2018-07-07T18:35:10.334Z,2.10
2018-07-07T18:40:04.889Z,1.87
2018-07-07T18:44:59.540Z,2.10
2018-07-07T18:49:54.593Z,2.43
2018-07-07T18:54:50.178Z,1.90
2018-07-07T18:59:45.317Z,2.00
2018-07-07T19:04:39.862Z,1.90
2018-07-07T19:09:34.204Z,1.87
2018-07-07T19:14:29.077Z,1.60
2018-07-07T19:19:23.439Z,1.60
2018-07-07T19:24:23.284Z,1.83
2018-07-07T19:29:17.918Z,1.90
2018-07-07T19:34:17.875Z,1.90
2018-07-07T19:39:12.402Z,1.70
2018-07-07T19:44:07.001Z,1.97
2018-07-07T19:49:01.960Z,1.83
2018-07-07T19:53:56.596Z,2.00
2018-07-07T19:58:51.250Z,1.87
2018-07-07T20:03:45.830Z,2.00
2018-07-07T20:08:42.146Z,2.00
2018-07-07T20:13:36.398Z,1.70
2018-07-07T20:18:46.957Z,1.60
2018-07-07T20:23:41.816Z,1.73
2018-07-07T20:28:41.418Z,1.60
2018-07-07T20:33:35.927Z,1.53
2018-07-07T20:38:30.527Z,1.87
2018-07-07T20:43:24.993Z,1.70
2018-07-07T20:48:18.516Z,1.67
2018-07-07T20:53:13.006Z,1.97
2018-07-07T20:58:08.052Z,1.70
2018-07-07T21:03:02.694Z,1.90
2018-07-07T21:07:57.175Z,1.90
2018-07-07T21:12:51.890Z,1.43
2018-07-07T21:17:46.412Z,1.90
2018-07-07T21:22:41.074Z,1.57
2018-07-07T21:27:35.548Z,1.80
2018-07-07T21:32:31.072Z,1.70
2018-07-07T21:37:25.732Z,1.77
2018-07-07T21:42:20.257Z,1.97
2018-07-07T21:47:15.261Z,2.40
2018-07-07T21:52:10.667Z,1.80
2018-07-07T21:57:05.348Z,2.13
2018-07-07T22:02:05.265Z,1.90
2018-07-07T22:07:07.201Z,1.93
2018-07-07T22:12:02.212Z,2.13
2018-07-07T22:16:57.027Z,1.87
2018-07-07T22:22:03.704Z,2.20
2018-07-07T22:27:00.810Z,2.20
2018-07-07T22:31:56.661Z,1.87
2018-07-07T22:36:51.691Z,1.90
2018-07-07T22:41:58.324Z,1.97
2018-07-07T22:46:53.558Z,1.90
2018-07-07T22:51:48.169Z,1.90
2018-07-07T22:56:43.452Z,1.90
2018-07-07T23:01:38.266Z,1.77
2018-07-07T23:06:33.214Z,1.77
2018-07-07T23:11:28.174Z,1.77
2018-07-07T23:16:23.000Z,1.93
2018-07-07T23:21:18.098Z,2.23
2018-07-07T23:26:15.247Z,1.90
2018-07-07T23:31:10.311Z,2.40
2018-07-07T23:36:06.040Z,1.97
2018-07-07T23:41:01.835Z,2.17
2018-07-07T23:45:57.613Z,2.07
2018-07-07T23:50:52.332Z,2.20
2018-07-07T23:55:48.314Z,2.00
